createdAt,value
2022-12-18T00:00:25.732Z,68.75
2022-12-18T00:02:58.275Z,68.67
2022-12-18T00:05:26.705Z,68.82
2022-12-18T00:07:56.229Z,68.71
2022-12-18T00:10:25.204Z,68.62
2022-12-18T00:12:53.597Z,68.59
2022-12-18T00:15:23.142Z,68.58
2022-12-18T00:17:51.620Z,68.76
2022-12-18T00:20:26.949Z,68.86
2022-12-18T00:22:56.060Z,68.94
2022-12-18T00:25:25.570Z,68.94
2022-12-18T00:27:54.030Z,68.83
2022-12-18T00:30:23.003Z,68.69
2022-12-18T00:32:51.855Z,68.72
2022-12-18T00:35:21.719Z,68.90
2022-12-18T00:37:50.963Z,69.09
2022-12-18T00:40:19.361Z,69.07
2022-12-18T00:42:57.012Z,68.96
2022-12-18T00:45:26.230Z,69.12
2022-12-18T00:47:56.408Z,69.03
2022-12-18T00:50:27.300Z,68.93
2022-12-18T00:52:56.054Z,68.91
2022-12-18T00:55:24.924Z,69.15
2022-12-18T00:57:53.781Z,69.21
2022-12-18T01:00:23.530Z,69.39
2022-12-18T01:02:52.385Z,69.37
2022-12-18T01:05:21.017Z,69.23
2022-12-18T01:07:51.610Z,69.23
2022-12-18T01:10:21.080Z,69.36
2022-12-18T01:12:50.477Z,69.29
2022-12-18T01:15:20.959Z,69.26
2022-12-18T01:17:49.374Z,69.60
2022-12-18T01:20:17.790Z,69.77
2022-12-18T01:22:48.360Z,69.64
2022-12-18T01:25:18.234Z,69.79
2022-12-18T01:27:47.036Z,69.95
2022-12-18T01:30:15.925Z,69.98
2022-12-18T01:32:44.321Z,70.02
2022-12-18T01:35:13.618Z,70.10
2022-12-18T01:37:42.000Z,70.01
2022-12-18T01:40:12.235Z,70.02
2022-12-18T01:42:42.736Z,70.17
2022-12-18T01:45:28.526Z,70.19
2022-12-18T01:47:59.759Z,70.38
2022-12-18T01:50:33.688Z,70.26
2022-12-18T01:53:08.135Z,70.38
2022-12-18T01:55:43.617Z,70.38
2022-12-18T01:58:13.415Z,70.37
2022-12-18T02:00:42.835Z,70.40
2022-12-18T02:03:12.197Z,70.46
2022-12-18T02:05:49.392Z,70.33
2022-12-18T02:08:24.298Z,70.16
2022-12-18T02:11:02.403Z,70.39
2022-12-18T02:13:43.144Z,70.42
2022-12-18T02:16:21.547Z,70.27
2022-12-18T02:18:55.068Z,70.30
2022-12-18T02:21:33.365Z,70.28
2022-12-18T02:24:26.853Z,70.13
2022-12-18T02:27:00.388Z,70.38
2022-12-18T02:29:37.305Z,70.19
2022-12-18T02:32:11.746Z,70.25
2022-12-18T02:34:41.859Z,70.29
2022-12-18T02:37:20.076Z,70.19
2022-12-18T02:39:52.099Z,70.26
2022-12-18T02:42:22.206Z,70.31
2022-12-18T02:44:53.839Z,70.18
2022-12-18T02:47:31.904Z,70.40
2022-12-18T02:50:09.005Z,70.36
2022-12-18T02:52:43.836Z,70.40
2022-12-18T02:55:30.613Z,70.40
2022-12-18T02:58:13.055Z,70.44
2022-12-18T03:00:49.993Z,70.41
2022-12-18T03:03:26.450Z,70.30
2022-12-18T03:06:01.025Z,70.32
2022-12-18T03:08:32.478Z,70.18
2022-12-18T03:11:04.803Z,70.25
2022-12-18T03:13:40.578Z,70.42
2022-12-18T03:16:12.889Z,70.44
2022-12-18T03:18:48.542Z,70.41
2022-12-18T03:21:22.847Z,70.40
2022-12-18T03:23:55.207Z,70.25
2022-12-18T03:26:29.809Z,70.31
2022-12-18T03:29:08.704Z,70.49
2022-12-18T03:31:42.202Z,70.47
2022-12-18T03:34:14.266Z,70.36
2022-12-18T03:36:46.594Z,70.49
2022-12-18T03:39:16.485Z,70.51
2022-12-18T03:41:57.916Z,70.62
2022-12-18T03:44:41.975Z,70.72
2022-12-18T03:47:16.690Z,70.69
2022-12-18T03:49:53.057Z,70.88
2022-12-18T03:52:28.694Z,70.96
2022-12-18T03:55:00.957Z,70.74
2022-12-18T03:57:32.323Z,70.73
2022-12-18T04:00:07.562Z,70.72
2022-12-18T04:03:07.980Z,70.78
2022-12-18T04:05:46.060Z,70.80
2022-12-18T04:08:16.964Z,70.79
2022-12-18T04:10:53.194Z,70.78
2022-12-18T04:13:25.676Z,70.73
2022-12-18T04:15:56.526Z,70.81
2022-12-18T04:18:26.009Z,70.84
2022-12-18T04:20:56.369Z,70.88
2022-12-18T04:23:25.365Z,70.65
2022-12-18T04:25:56.024Z,70.65
2022-12-18T04:28:38.830Z,70.93
2022-12-18T04:31:08.730Z,70.94
2022-12-18T04:33:37.901Z,71.05
2022-12-18T04:36:08.958Z,71.31
2022-12-18T04:38:37.714Z,71.17
2022-12-18T04:41:10.844Z,71.33
2022-12-18T04:43:39.840Z,71.32
2022-12-18T04:46:11.801Z,71.31
2022-12-18T04:48:40.572Z,71.09
2022-12-18T04:51:10.017Z,71.28
2022-12-18T04:53:38.822Z,71.25
2022-12-18T04:56:10.150Z,71.07
2022-12-18T04:58:39.099Z,71.35
2022-12-18T05:01:10.760Z,71.57
2022-12-18T05:03:40.051Z,71.42
2022-12-18T05:06:09.123Z,71.58
2022-12-18T05:08:37.793Z,71.57
2022-12-18T05:11:09.140Z,71.57
2022-12-18T05:13:39.267Z,71.56
2022-12-18T05:16:11.154Z,71.70
2022-12-18T05:18:39.728Z,71.56
2022-12-18T05:21:08.543Z,71.52
2022-12-18T05:23:37.641Z,71.45
2022-12-18T05:26:09.049Z,71.39
2022-12-18T05:28:38.818Z,71.66
2022-12-18T05:31:07.864Z,71.69
2022-12-18T05:33:38.488Z,71.64
2022-12-18T05:36:09.440Z,71.62
2022-12-18T05:38:40.231Z,71.55
2022-12-18T05:41:09.640Z,71.69
2022-12-18T05:43:39.803Z,71.65
2022-12-18T05:46:11.117Z,71.75
2022-12-18T05:48:40.894Z,71.70
2022-12-18T05:51:12.097Z,71.72
2022-12-18T05:53:41.259Z,71.62
2022-12-18T05:56:13.357Z,71.61
2022-12-18T05:58:41.718Z,71.35
2022-12-18T06:01:13.376Z,71.46
2022-12-18T06:03:43.513Z,71.48
2022-12-18T06:06:16.925Z,71.36
2022-12-18T06:08:46.840Z,71.42
2022-12-18T06:11:19.223Z,71.66
2022-12-18T06:13:48.419Z,71.52
2022-12-18T06:16:17.096Z,71.66
2022-12-18T06:18:47.287Z,71.78
2022-12-18T06:21:15.915Z,71.72
2022-12-18T06:23:44.604Z,71.87
2022-12-18T06:26:15.340Z,71.74
2022-12-18T06:28:44.213Z,71.73
2022-12-18T06:31:13.731Z,71.79
2022-12-18T06:33:42.606Z,71.78
2022-12-18T06:36:15.009Z,71.54
2022-12-18T06:38:44.829Z,71.49
2022-12-18T06:41:15.769Z,71.54
2022-12-18T06:43:44.717Z,71.42
2022-12-18T06:46:13.791Z,71.55
2022-12-18T06:48:42.950Z,71.53
2022-12-18T06:51:12.738Z,71.42
2022-12-18T06:53:41.697Z,71.49
2022-12-18T06:56:11.069Z,71.60
2022-12-18T06:58:40.227Z,71.72
2022-12-18T07:01:10.946Z,71.57
2022-12-18T07:03:41.381Z,71.63
2022-12-18T07:06:17.997Z,71.62
2022-12-18T07:08:46.815Z,71.49
2022-12-18T07:11:15.791Z,71.58
2022-12-18T07:13:44.536Z,71.63
2022-12-18T07:16:19.674Z,71.62
2022-12-18T07:18:53.172Z,71.42
2022-12-18T07:21:23.848Z,71.49
2022-12-18T07:23:52.834Z,71.35
2022-12-18T07:26:23.740Z,71.15
2022-12-18T07:28:52.530Z,71.39
2022-12-18T07:31:23.467Z,71.33
2022-12-18T07:33:53.421Z,71.46
2022-12-18T07:36:23.455Z,71.37
2022-12-18T07:38:52.886Z,71.30
2022-12-18T07:41:22.452Z,71.41
2022-12-18T07:43:51.016Z,71.43
2022-12-18T07:46:20.103Z,71.43
2022-12-18T07:48:49.834Z,71.47
2022-12-18T07:51:19.872Z,71.57
2022-12-18T07:53:52.130Z,71.66
2022-12-18T07:56:30.512Z,71.59
2022-12-18T07:59:00.930Z,71.44
2022-12-18T08:01:29.485Z,71.40
2022-12-18T08:03:59.039Z,71.47
2022-12-18T08:06:27.976Z,71.50
2022-12-18T08:08:58.653Z,71.47
2022-12-18T08:11:29.648Z,71.51
2022-12-18T08:13:58.770Z,71.45
2022-12-18T08:16:27.884Z,71.46
2022-12-18T08:18:57.586Z,71.46
2022-12-18T08:21:28.309Z,71.48
2022-12-18T08:24:00.454Z,71.62
2022-12-18T08:26:31.434Z,71.22
2022-12-18T08:29:01.369Z,71.36
2022-12-18T08:31:32.752Z,71.39
2022-12-18T08:34:01.215Z,71.31
2022-12-18T08:36:30.355Z,71.40
2022-12-18T08:39:00.417Z,71.46
2022-12-18T08:41:28.913Z,71.61
2022-12-18T08:44:15.218Z,71.44
2022-12-18T08:46:45.427Z,71.48
2022-12-18T08:49:14.413Z,71.52
2022-12-18T08:51:42.851Z,71.38
2022-12-18T08:54:14.246Z,71.38
2022-12-18T08:56:42.671Z,71.34
2022-12-18T08:59:17.584Z,71.40
2022-12-18T09:01:49.024Z,71.00
2022-12-18T09:04:17.692Z,70.83
2022-12-18T09:06:47.848Z,70.65
2022-12-18T09:09:17.670Z,70.75
2022-12-18T09:11:46.099Z,70.71
2022-12-18T09:14:14.783Z,70.54
2022-12-18T09:16:43.477Z,70.50
2022-12-18T09:19:12.879Z,70.80
2022-12-18T09:21:46.107Z,70.67
2022-12-18T09:24:18.861Z,70.64
2022-12-18T09:26:47.792Z,70.44
2022-12-18T09:29:18.394Z,70.51
2022-12-18T09:31:47.637Z,70.46
2022-12-18T09:34:16.520Z,70.37
2022-12-18T09:36:45.566Z,70.28
2022-12-18T09:39:15.954Z,70.10
2022-12-18T09:41:50.922Z,70.04
2022-12-18T09:44:26.107Z,70.21
2022-12-18T09:47:27.358Z,70.04
2022-12-18T09:50:00.464Z,70.12
2022-12-18T09:52:35.172Z,70.15
2022-12-18T09:55:12.645Z,70.07
2022-12-18T09:57:51.486Z,69.93
2022-12-18T10:00:23.742Z,70.00
2022-12-18T10:02:55.039Z,69.93
2022-12-18T10:05:37.020Z,69.90
2022-12-18T10:08:09.389Z,70.06
2022-12-18T10:10:43.100Z,70.02
2022-12-18T10:13:20.715Z,69.54
2022-12-18T10:16:02.419Z,69.28
2022-12-18T10:18:51.778Z,69.44
2022-12-18T10:21:26.643Z,69.38
2022-12-18T10:24:05.441Z,69.19
2022-12-18T10:26:34.821Z,69.17
2022-12-18T10:29:10.384Z,69.24
2022-12-18T10:31:38.853Z,69.38
2022-12-18T10:34:11.654Z,69.19
2022-12-18T10:36:40.567Z,69.24
2022-12-18T10:39:17.593Z,69.21
2022-12-18T10:41:46.150Z,69.29
2022-12-18T10:44:19.833Z,69.29
2022-12-18T10:46:50.586Z,69.09
2022-12-18T10:49:26.377Z,69.09
2022-12-18T10:52:07.814Z,68.93
2022-12-18T10:54:37.480Z,69.25
2022-12-18T10:57:31.781Z,69.35
2022-12-18T11:00:22.829Z,69.18
2022-12-18T11:02:51.540Z,69.12
2022-12-18T11:05:31.850Z,69.09
2022-12-18T11:08:02.154Z,68.89
2022-12-18T11:10:34.413Z,69.00
2022-12-18T11:13:14.831Z,68.79
2022-12-18T11:15:44.883Z,68.73
2022-12-18T11:18:21.851Z,68.63
2022-12-18T11:20:58.766Z,68.70
2022-12-18T11:23:29.082Z,68.47
2022-12-18T11:25:59.954Z,68.33
2022-12-18T11:28:36.781Z,68.47
2022-12-18T11:31:32.368Z,68.10
2022-12-18T11:36:56.604Z,68.23
2022-12-18T11:39:36.489Z,68.23
2022-12-18T11:42:13.142Z,68.13
2022-12-18T11:44:49.046Z,68.04
2022-12-18T11:47:31.512Z,67.88
2022-12-18T11:50:05.002Z,67.79
2022-12-18T11:52:38.901Z,67.75
2022-12-18T11:55:13.882Z,67.59
2022-12-18T11:57:52.788Z,67.47
2022-12-18T12:00:22.235Z,67.34
2022-12-18T12:03:24.683Z,67.55
2022-12-18T12:06:05.549Z,67.35
2022-12-18T12:08:47.524Z,67.29
2022-12-18T12:11:24.693Z,67.36
2022-12-18T12:14:05.578Z,67.35
2022-12-18T12:16:44.229Z,67.42
2022-12-18T12:19:26.572Z,67.15
2022-12-18T12:22:03.406Z,67.13
2022-12-18T12:24:47.516Z,67.02
2022-12-18T12:27:25.476Z,67.22
2022-12-18T12:30:06.594Z,67.15
2022-12-18T12:33:02.754Z,67.06
2022-12-18T12:35:45.270Z,67.08
2022-12-18T12:38:19.242Z,66.94
2022-12-18T12:40:58.797Z,66.77
2022-12-18T12:43:43.357Z,66.65
2022-12-18T12:46:21.004Z,66.62
2022-12-18T12:48:55.902Z,66.42
2022-12-18T12:51:28.701Z,66.58
2022-12-18T12:53:59.993Z,66.76
2022-12-18T12:56:39.128Z,66.76
2022-12-18T12:59:15.751Z,66.68
2022-12-18T13:01:56.474Z,66.85
2022-12-18T13:04:32.902Z,66.57
2022-12-18T13:07:10.922Z,66.47
2022-12-18T13:10:19.133Z,66.22
2022-12-18T13:12:58.301Z,66.03
2022-12-18T13:15:39.857Z,66.17
2022-12-18T13:18:16.506Z,66.33
2022-12-18T13:20:53.663Z,66.48
2022-12-18T13:23:35.631Z,66.64
2022-12-18T13:26:36.817Z,66.65
2022-12-18T13:29:07.453Z,66.58
2022-12-18T13:32:21.306Z,66.60
2022-12-18T13:35:11.585Z,66.51
2022-12-18T13:37:46.140Z,66.39
2022-12-18T13:40:57.437Z,66.67
2022-12-18T13:43:38.127Z,66.30
2022-12-18T13:46:20.357Z,66.26
2022-12-18T13:49:01.979Z,66.15
2022-12-18T13:51:34.238Z,65.88
2022-12-18T13:54:04.707Z,65.93
2022-12-18T13:56:35.608Z,66.03
2022-12-18T13:59:24.602Z,66.10
2022-12-18T14:01:56.328Z,66.16
2022-12-18T14:04:28.359Z,66.02
2022-12-18T14:07:01.276Z,65.99
2022-12-18T14:09:33.396Z,65.96
2022-12-18T14:12:20.903Z,66.14
2022-12-18T14:14:55.276Z,66.11
2022-12-18T14:17:26.057Z,65.99
2022-12-18T14:19:55.677Z,66.17
2022-12-18T14:22:28.779Z,66.31
2022-12-18T14:25:17.733Z,66.33
2022-12-18T14:27:48.555Z,66.63
2022-12-18T14:30:33.858Z,66.65
2022-12-18T14:33:05.431Z,66.70
2022-12-18T14:35:35.563Z,66.65
2022-12-18T14:38:23.835Z,66.54
2022-12-18T14:41:00.472Z,66.54
2022-12-18T14:43:30.013Z,66.77
2022-12-18T14:46:01.103Z,66.74
2022-12-18T14:48:41.423Z,66.88
2022-12-18T14:51:19.291Z,66.94
2022-12-18T14:53:54.530Z,67.01
2022-12-18T14:56:26.822Z,67.06
2022-12-18T14:58:57.885Z,66.82
2022-12-18T15:01:31.781Z,66.97
2022-12-18T15:04:02.257Z,67.13
2022-12-18T15:06:34.173Z,67.22
2022-12-18T15:09:07.697Z,67.18
2022-12-18T15:11:45.797Z,67.39
2022-12-18T15:14:36.181Z,67.46
2022-12-18T15:17:09.208Z,67.51
2022-12-18T15:19:42.705Z,67.76
2022-12-18T15:22:22.331Z,67.57
2022-12-18T15:24:52.741Z,67.64
2022-12-18T15:27:27.135Z,67.67
2022-12-18T15:30:21.213Z,67.74
2022-12-18T15:32:51.782Z,67.62
2022-12-18T15:35:22.569Z,67.76
2022-12-18T15:37:52.426Z,67.97
2022-12-18T15:40:23.381Z,67.76
2022-12-18T15:43:12.728Z,67.77
2022-12-18T15:45:41.244Z,67.73
2022-12-18T15:48:22.566Z,67.57
2022-12-18T15:50:52.520Z,67.64
2022-12-18T15:53:21.331Z,67.60
2022-12-18T15:56:07.326Z,67.78
2022-12-18T15:58:36.480Z,67.93
2022-12-18T16:01:05.030Z,67.79
2022-12-18T16:03:35.640Z,67.58
2022-12-18T16:06:04.516Z,67.51
2022-12-18T16:08:33.167Z,67.60
2022-12-18T16:11:02.322Z,67.75
2022-12-18T16:13:30.749Z,67.69
2022-12-18T16:15:59.821Z,67.61
2022-12-18T16:18:28.259Z,67.49
2022-12-18T16:20:58.707Z,67.38
2022-12-18T16:23:28.422Z,67.47
2022-12-18T16:25:56.820Z,67.48
2022-12-18T16:28:25.913Z,67.41
2022-12-18T16:30:54.300Z,67.41
2022-12-18T16:33:23.618Z,67.44
2022-12-18T16:35:55.515Z,67.38
2022-12-18T16:38:25.277Z,67.27
2022-12-18T16:41:11.402Z,67.37
2022-12-18T16:43:40.282Z,67.48
2022-12-18T16:46:09.283Z,67.31
2022-12-18T16:48:39.256Z,67.40
2022-12-18T16:51:07.649Z,67.42
2022-12-18T16:53:39.653Z,67.40
2022-12-18T16:56:08.703Z,67.43
2022-12-18T16:58:38.001Z,67.42
2022-12-18T17:01:10.275Z,67.38
2022-12-18T17:03:39.269Z,67.33
2022-12-18T17:06:08.762Z,67.17
2022-12-18T17:08:38.958Z,67.00
2022-12-18T17:11:08.857Z,66.99
2022-12-18T17:13:37.827Z,66.96
2022-12-18T17:16:07.770Z,66.96
2022-12-18T17:18:36.952Z,67.03
2022-12-18T17:21:09.809Z,66.86
2022-12-18T17:23:39.981Z,66.77
2022-12-18T17:26:11.186Z,66.58
2022-12-18T17:28:41.787Z,66.58
2022-12-18T17:31:15.324Z,66.66
2022-12-18T17:33:44.814Z,66.81
2022-12-18T17:36:14.098Z,66.77
2022-12-18T17:38:45.197Z,66.64
2022-12-18T17:41:13.871Z,66.71
2022-12-18T17:43:45.918Z,66.92
2022-12-18T17:46:16.431Z,66.67
2022-12-18T17:48:45.209Z,66.61
2022-12-18T17:51:15.044Z,66.61
2022-12-18T17:53:45.227Z,66.66
2022-12-18T17:56:16.025Z,66.76
2022-12-18T17:58:45.818Z,66.63
2022-12-18T18:01:17.506Z,66.64
2022-12-18T18:03:47.948Z,66.73
2022-12-18T18:06:21.174Z,66.70
2022-12-18T18:08:51.698Z,66.36
2022-12-18T18:11:40.277Z,66.23
2022-12-18T18:14:19.466Z,66.21
2022-12-18T18:16:50.068Z,66.29
2022-12-18T18:19:20.723Z,66.29
2022-12-18T18:21:52.925Z,66.15
2022-12-18T18:24:25.761Z,66.07
2022-12-18T18:26:59.511Z,66.10
2022-12-18T18:29:31.924Z,66.05
2022-12-18T18:32:00.621Z,66.06
2022-12-18T18:34:32.859Z,66.24
2022-12-18T18:37:03.052Z,66.05
2022-12-18T18:39:33.242Z,66.20
2022-12-18T18:42:01.853Z,66.38
2022-12-18T18:44:31.607Z,66.34
2022-12-18T18:47:00.226Z,66.29
2022-12-18T18:49:31.427Z,66.06
2022-12-18T18:52:00.546Z,66.26
2022-12-18T18:54:29.399Z,66.15
2022-12-18T18:57:20.119Z,66.21
2022-12-18T18:59:49.809Z,66.31
2022-12-18T19:02:19.203Z,66.09
2022-12-18T19:04:47.809Z,66.00
2022-12-18T19:07:29.858Z,66.14
2022-12-18T19:10:04.482Z,66.15
2022-12-18T19:12:53.639Z,66.06
2022-12-18T19:15:23.424Z,65.95
2022-12-18T19:17:52.735Z,66.03
2022-12-18T19:20:21.831Z,65.93
2022-12-18T19:22:55.354Z,65.99
2022-12-18T19:25:38.387Z,65.94
2022-12-18T19:28:15.875Z,65.88
2022-12-18T19:30:58.713Z,65.71
2022-12-18T19:33:45.063Z,65.61
2022-12-18T19:36:16.802Z,65.44
2022-12-18T19:38:46.134Z,65.44
2022-12-18T19:41:16.393Z,65.42
2022-12-18T19:43:47.424Z,65.46
2022-12-18T19:46:18.251Z,65.54
2022-12-18T19:48:48.270Z,65.50
2022-12-18T19:51:18.779Z,65.60
2022-12-18T19:53:49.863Z,65.64
2022-12-18T19:56:23.179Z,65.39
2022-12-18T19:58:54.545Z,65.44
2022-12-18T20:01:24.736Z,65.67
2022-12-18T20:03:55.262Z,65.59
2022-12-18T20:06:27.793Z,65.46
2022-12-18T20:09:00.487Z,65.53
2022-12-18T20:11:30.198Z,65.68
2022-12-18T20:14:00.008Z,65.84
2022-12-18T20:16:28.601Z,66.05
2022-12-18T20:18:58.553Z,66.03
2022-12-18T20:21:27.045Z,66.13
2022-12-18T20:23:56.344Z,66.28
2022-12-18T20:26:25.223Z,66.23
2022-12-18T20:28:55.588Z,66.34
2022-12-18T20:31:25.816Z,66.23
2022-12-18T20:33:55.740Z,66.27
2022-12-18T20:36:29.536Z,66.33
2022-12-18T20:39:01.651Z,66.51
2022-12-18T20:41:38.511Z,66.56
2022-12-18T20:44:23.246Z,66.66
2022-12-18T20:46:57.960Z,66.72
2022-12-18T20:49:27.938Z,66.77
2022-12-18T20:51:58.843Z,67.01
2022-12-18T20:54:28.648Z,67.01
2022-12-18T20:56:58.360Z,67.17
2022-12-18T20:59:27.153Z,67.23
2022-12-18T21:01:57.129Z,67.41
2022-12-18T21:04:25.997Z,67.54
2022-12-18T21:07:00.438Z,67.47
2022-12-18T21:09:37.566Z,67.63
2022-12-18T21:12:44.004Z,67.78
2022-12-18T21:15:25.383Z,67.88
2022-12-18T21:17:58.665Z,68.07
2022-12-18T21:20:28.061Z,68.02
2022-12-18T21:22:57.703Z,68.19
2022-12-18T21:25:39.703Z,68.61
2022-12-18T21:28:08.082Z,68.45
2022-12-18T21:30:37.274Z,68.54
2022-12-18T21:33:07.361Z,68.58
2022-12-18T21:35:36.185Z,68.61
2022-12-18T21:38:05.696Z,68.68
2022-12-18T21:40:34.263Z,68.67
2022-12-18T21:43:20.772Z,68.77
2022-12-18T21:45:49.268Z,68.76
2022-12-18T21:48:19.527Z,68.84
2022-12-18T21:50:48.441Z,69.09
2022-12-18T21:53:17.277Z,68.83
2022-12-18T21:55:45.659Z,68.78
2022-12-18T21:58:14.910Z,68.83
2022-12-18T22:00:48.574Z,68.87
2022-12-18T22:03:19.463Z,68.95
2022-12-18T22:05:49.655Z,69.06
2022-12-18T22:08:29.907Z,69.12
2022-12-18T22:10:58.603Z,69.32
2022-12-18T22:13:27.122Z,69.21
2022-12-18T22:15:56.434Z,69.27
2022-12-18T22:18:24.842Z,69.42
2022-12-18T22:21:03.466Z,69.35
2022-12-18T22:23:32.258Z,69.55
2022-12-18T22:26:01.172Z,69.46
2022-12-18T22:28:55.893Z,69.46
2022-12-18T22:31:24.544Z,69.34
2022-12-18T22:33:52.941Z,69.43
2022-12-18T22:36:23.578Z,69.59
2022-12-18T22:38:52.002Z,69.76
2022-12-18T22:41:22.923Z,69.67
2022-12-18T22:43:51.321Z,69.78
2022-12-18T22:46:21.865Z,69.80
2022-12-18T22:48:51.230Z,70.01
2022-12-18T22:51:20.719Z,70.02
2022-12-18T22:53:51.371Z,70.16
2022-12-18T22:56:21.374Z,70.12
2022-12-18T22:58:50.858Z,70.14
2022-12-18T23:01:22.558Z,70.35
2022-12-18T23:03:51.684Z,70.35
2022-12-18T23:06:21.334Z,70.45
2022-12-18T23:08:55.952Z,70.61
2022-12-18T23:11:26.095Z,70.72
2022-12-18T23:13:57.547Z,70.86
2022-12-18T23:16:27.867Z,70.91
2022-12-18T23:18:56.898Z,70.92
2022-12-18T23:21:26.401Z,70.99
2022-12-18T23:23:57.486Z,71.21
2022-12-18T23:26:28.585Z,71.32
2022-12-18T23:28:57.445Z,71.35
2022-12-18T23:31:29.086Z,71.48
2022-12-18T23:33:59.210Z,71.59
2022-12-18T23:36:29.127Z,71.59
2022-12-18T23:39:02.461Z,71.61
2022-12-18T23:41:32.650Z,71.63
2022-12-18T23:44:01.797Z,71.65
2022-12-18T23:46:32.183Z,71.82
2022-12-18T23:49:02.789Z,71.85
2022-12-18T23:51:34.474Z,72.01
2022-12-18T23:54:06.564Z,72.22
2022-12-18T23:56:35.781Z,72.01
2022-12-18T23:59:04.931Z,71.81
